sensor_id;sensor_type;location;lat;lon;timestamp;P1;durP1;ratioP1;P2;durP2;ratioP2
16624;SDS011;8426;48.496;9.098;2023-05-13T00:01:28;4.85;;;1.83;;
16624;SDS011;8426;48.496;9.098;2023-05-13T00:06:34;3.70;;;2.30;;
16624;SDS011;8426;48.496;9.098;2023-05-13T00:11:39;3.65;;;2.30;;
16624;SDS011;8426;48.496;9.098;2023-05-13T00:16:45;4.57;;;2.88;;
16624;SDS011;8426;48.496;9.098;2023-05-13T00:21:50;6.72;;;2.92;;
16624;SDS011;8426;48.496;9.098;2023-05-13T00:27:01;4.60;;;2.53;;
16624;SDS011;8426;48.496;9.098;2023-05-13T00:32:06;6.85;;;2.60;;
16624;SDS011;8426;48.496;9.098;2023-05-13T00:37:12;5.05;;;2.80;;
16624;SDS011;8426;48.496;9.098;2023-05-13T00:42:17;6.75;;;2.53;;
16624;SDS011;8426;48.496;9.098;2023-05-13T00:47:33;3.28;;;2.42;;
16624;SDS011;8426;48.496;9.098;2023-05-13T00:52:43;4.40;;;2.75;;
16624;SDS011;8426;48.496;9.098;2023-05-13T00:57:48;5.68;;;2.25;;
16624;SDS011;8426;48.496;9.098;2023-05-13T01:03:01;4.03;;;2.45;;
16624;SDS011;8426;48.496;9.098;2023-05-13T01:08:13;6.00;;;2.90;;
16624;SDS011;8426;48.496;9.098;2023-05-13T01:13:36;6.57;;;3.05;;
16624;SDS011;8426;48.496;9.098;2023-05-13T01:18:46;5.05;;;2.72;;
16624;SDS011;8426;48.496;9.098;2023-05-13T01:29:26;3.30;;;2.28;;
16624;SDS011;8426;48.496;9.098;2023-05-13T01:34:35;4.57;;;2.65;;
16624;SDS011;8426;48.496;9.098;2023-05-13T01:39:44;4.03;;;3.17;;
16624;SDS011;8426;48.496;9.098;2023-05-13T01:44:49;4.07;;;2.63;;
16624;SDS011;8426;48.496;9.098;2023-05-13T01:50:05;3.53;;;2.80;;
16624;SDS011;8426;48.496;9.098;2023-05-13T02:00:30;5.80;;;3.00;;
16624;SDS011;8426;48.496;9.098;2023-05-13T02:05:37;4.82;;;2.95;;
16624;SDS011;8426;48.496;9.098;2023-05-13T02:10:52;7.22;;;2.80;;
16624;SDS011;8426;48.496;9.098;2023-05-13T02:15:56;7.32;;;2.65;;
16624;SDS011;8426;48.496;9.098;2023-05-13T02:21:07;4.55;;;2.90;;
16624;SDS011;8426;48.496;9.098;2023-05-13T02:26:13;4.57;;;2.75;;
16624;SDS011;8426;48.496;9.098;2023-05-13T02:31:32;8.05;;;3.03;;
16624;SDS011;8426;48.496;9.098;2023-05-13T02:36:55;3.88;;;2.72;;
16624;SDS011;8426;48.496;9.098;2023-05-13T02:42:01;5.50;;;2.50;;
16624;SDS011;8426;48.496;9.098;2023-05-13T02:47:22;3.40;;;2.47;;
16624;SDS011;8426;48.496;9.098;2023-05-13T02:52:27;4.38;;;2.40;;
16624;SDS011;8426;48.496;9.098;2023-05-13T02:57:33;3.35;;;2.42;;
16624;SDS011;8426;48.496;9.098;2023-05-13T03:02:39;4.47;;;2.30;;
16624;SDS011;8426;48.496;9.098;2023-05-13T03:07:44;4.03;;;2.78;;
16624;SDS011;8426;48.496;9.098;2023-05-13T03:12:51;4.57;;;2.80;;
16624;SDS011;8426;48.496;9.098;2023-05-13T03:23:31;4.30;;;2.50;;
16624;SDS011;8426;48.496;9.098;2023-05-13T03:28:42;4.22;;;2.83;;
16624;SDS011;8426;48.496;9.098;2023-05-13T03:33:46;3.70;;;2.63;;
16624;SDS011;8426;48.496;9.098;2023-05-13T03:38:50;4.65;;;2.80;;
16624;SDS011;8426;48.496;9.098;2023-05-13T03:43:56;3.25;;;2.47;;
16624;SDS011;8426;48.496;9.098;2023-05-13T03:49:00;4.88;;;2.40;;
16624;SDS011;8426;48.496;9.098;2023-05-13T03:54:04;3.85;;;2.67;;
16624;SDS011;8426;48.496;9.098;2023-05-13T03:59:09;3.05;;;2.30;;
16624;SDS011;8426;48.496;9.098;2023-05-13T04:04:13;6.43;;;1.90;;
16624;SDS011;8426;48.496;9.098;2023-05-13T04:09:16;4.25;;;2.40;;
16624;SDS011;8426;48.496;9.098;2023-05-13T04:14:23;5.10;;;2.30;;
16624;SDS011;8426;48.496;9.098;2023-05-13T04:19:26;5.30;;;2.63;;
16624;SDS011;8426;48.496;9.098;2023-05-13T04:24:30;5.18;;;2.30;;
16624;SDS011;8426;48.496;9.098;2023-05-13T04:29:36;6.60;;;3.25;;
16624;SDS011;8426;48.496;9.098;2023-05-13T04:34:39;3.33;;;2.20;;
16624;SDS011;8426;48.496;9.098;2023-05-13T04:39:45;3.20;;;1.98;;
16624;SDS011;8426;48.496;9.098;2023-05-13T04:44:51;2.28;;;1.80;;
16624;SDS011;8426;48.496;9.098;2023-05-13T04:49:58;2.95;;;2.13;;
16624;SDS011;8426;48.496;9.098;2023-05-13T04:55:03;2.75;;;2.13;;
16624;SDS011;8426;48.496;9.098;2023-05-13T05:00:10;3.85;;;2.15;;
16624;SDS011;8426;48.496;9.098;2023-05-13T05:05:17;3.10;;;2.10;;
16624;SDS011;8426;48.496;9.098;2023-05-13T05:10:20;3.88;;;2.30;;
16624;SDS011;8426;48.496;9.098;2023-05-13T05:15:25;3.42;;;2.08;;
16624;SDS011;8426;48.496;9.098;2023-05-13T05:20:30;1.90;;;1.70;;
16624;SDS011;8426;48.496;9.098;2023-05-13T05:25:35;2.58;;;2.00;;
16624;SDS011;8426;48.496;9.098;2023-05-13T05:30:40;2.67;;;1.85;;
16624;SDS011;8426;48.496;9.098;2023-05-13T05:35:43;3.33;;;1.98;;
16624;SDS011;8426;48.496;9.098;2023-05-13T05:40:47;2.70;;;2.00;;
16624;SDS011;8426;48.496;9.098;2023-05-13T05:45:52;3.10;;;1.85;;
16624;SDS011;8426;48.496;9.098;2023-05-13T05:50:56;2.83;;;1.95;;
16624;SDS011;8426;48.496;9.098;2023-05-13T05:56:00;2.97;;;2.08;;
16624;SDS011;8426;48.496;9.098;2023-05-13T06:01:04;3.20;;;1.77;;
16624;SDS011;8426;48.496;9.098;2023-05-13T06:06:08;7.20;;;1.95;;
16624;SDS011;8426;48.496;9.098;2023-05-13T06:11:14;2.60;;;1.63;;
16624;SDS011;8426;48.496;9.098;2023-05-13T06:16:20;2.63;;;1.83;;
16624;SDS011;8426;48.496;9.098;2023-05-13T06:21:24;2.75;;;2.15;;
16624;SDS011;8426;48.496;9.098;2023-05-13T06:26:28;3.15;;;2.17;;
16624;SDS011;8426;48.496;9.098;2023-05-13T06:31:33;6.28;;;2.40;;
16624;SDS011;8426;48.496;9.098;2023-05-13T06:36:37;2.63;;;2.10;;
16624;SDS011;8426;48.496;9.098;2023-05-13T06:41:42;3.35;;;2.17;;
16624;SDS011;8426;48.496;9.098;2023-05-13T06:46:47;4.72;;;1.92;;
16624;SDS011;8426;48.496;9.098;2023-05-13T06:51:54;2.53;;;1.70;;
16624;SDS011;8426;48.496;9.098;2023-05-13T06:56:57;4.07;;;2.03;;
16624;SDS011;8426;48.496;9.098;2023-05-13T07:02:02;12.15;;;2.58;;
16624;SDS011;8426;48.496;9.098;2023-05-13T07:07:08;2.47;;;1.85;;
16624;SDS011;8426;48.496;9.098;2023-05-13T07:12:14;2.80;;;2.03;;
16624;SDS011;8426;48.496;9.098;2023-05-13T07:17:21;2.85;;;2.00;;
16624;SDS011;8426;48.496;9.098;2023-05-13T07:22:25;2.38;;;1.88;;
16624;SDS011;8426;48.496;9.098;2023-05-13T07:27:30;4.38;;;2.15;;
16624;SDS011;8426;48.496;9.098;2023-05-13T07:32:36;2.85;;;1.90;;
16624;SDS011;8426;48.496;9.098;2023-05-13T07:37:40;6.10;;;2.03;;
16624;SDS011;8426;48.496;9.098;2023-05-13T07:42:50;5.18;;;2.25;;
16624;SDS011;8426;48.496;9.098;2023-05-13T07:47:56;4.80;;;2.40;;
16624;SDS011;8426;48.496;9.098;2023-05-13T07:53:00;3.13;;;2.20;;
16624;SDS011;8426;48.496;9.098;2023-05-13T07:58:15;5.72;;;2.72;;
16624;SDS011;8426;48.496;9.098;2023-05-13T08:03:25;6.28;;;2.72;;
16624;SDS011;8426;48.496;9.098;2023-05-13T08:08:30;5.32;;;2.80;;
16624;SDS011;8426;48.496;9.098;2023-05-13T08:13:34;5.03;;;2.33;;
16624;SDS011;8426;48.496;9.098;2023-05-13T08:18:42;4.05;;;2.67;;
16624;SDS011;8426;48.496;9.098;2023-05-13T08:23:48;4.68;;;3.00;;
16624;SDS011;8426;48.496;9.098;2023-05-13T08:28:52;4.45;;;2.85;;
16624;SDS011;8426;48.496;9.098;2023-05-13T08:33:59;5.47;;;2.90;;
16624;SDS011;8426;48.496;9.098;2023-05-13T08:39:03;5.00;;;3.30;;
16624;SDS011;8426;48.496;9.098;2023-05-13T08:44:10;5.50;;;3.10;;
16624;SDS011;8426;48.496;9.098;2023-05-13T08:49:16;6.72;;;3.80;;
16624;SDS011;8426;48.496;9.098;2023-05-13T08:54:22;10.10;;;4.28;;
16624;SDS011;8426;48.496;9.098;2023-05-13T08:59:28;8.38;;;3.70;;
16624;SDS011;8426;48.496;9.098;2023-05-13T09:04:39;7.47;;;3.72;;
16624;SDS011;8426;48.496;9.098;2023-05-13T09:09:45;9.30;;;3.45;;
16624;SDS011;8426;48.496;9.098;2023-05-13T09:14:48;11.48;;;4.50;;
16624;SDS011;8426;48.496;9.098;2023-05-13T09:19:59;6.15;;;3.70;;
16624;SDS011;8426;48.496;9.098;2023-05-13T09:25:10;7.90;;;3.33;;
16624;SDS011;8426;48.496;9.098;2023-05-13T09:30:18;5.22;;;3.00;;
16624;SDS011;8426;48.496;9.098;2023-05-13T09:35:24;5.55;;;3.10;;
16624;SDS011;8426;48.496;9.098;2023-05-13T09:40:29;7.90;;;4.10;;
16624;SDS011;8426;48.496;9.098;2023-05-13T09:45:33;6.43;;;3.40;;
16624;SDS011;8426;48.496;9.098;2023-05-13T09:50:46;6.18;;;3.45;;
16624;SDS011;8426;48.496;9.098;2023-05-13T09:55:51;6.45;;;3.42;;
16624;SDS011;8426;48.496;9.098;2023-05-13T10:00:57;8.15;;;3.75;;
16624;SDS011;8426;48.496;9.098;2023-05-13T10:06:03;9.25;;;3.33;;
16624;SDS011;8426;48.496;9.098;2023-05-13T10:11:07;6.18;;;3.20;;
16624;SDS011;8426;48.496;9.098;2023-05-13T10:16:13;7.22;;;3.05;;
16624;SDS011;8426;48.496;9.098;2023-05-13T10:21:20;6.43;;;2.97;;
16624;SDS011;8426;48.496;9.098;2023-05-13T10:26:25;10.15;;;3.63;;
16624;SDS011;8426;48.496;9.098;2023-05-13T10:31:36;6.88;;;2.95;;
16624;SDS011;8426;48.496;9.098;2023-05-13T10:36:45;31.52;;;4.30;;
16624;SDS011;8426;48.496;9.098;2023-05-13T10:47:39;4.88;;;2.50;;
16624;SDS011;8426;48.496;9.098;2023-05-13T10:52:46;3.60;;;2.58;;
16624;SDS011;8426;48.496;9.098;2023-05-13T10:58:03;3.72;;;2.55;;
16624;SDS011;8426;48.496;9.098;2023-05-13T11:03:15;3.70;;;2.30;;
16624;SDS011;8426;48.496;9.098;2023-05-13T11:08:39;8.23;;;3.00;;
16624;SDS011;8426;48.496;9.098;2023-05-13T11:13:44;3.60;;;2.13;;
16624;SDS011;8426;48.496;9.098;2023-05-13T11:18:47;4.72;;;2.33;;
16624;SDS011;8426;48.496;9.098;2023-05-13T11:23:56;3.30;;;2.22;;
16624;SDS011;8426;48.496;9.098;2023-05-13T11:29:02;5.78;;;2.50;;
16624;SDS011;8426;48.496;9.098;2023-05-13T11:34:07;3.20;;;2.35;;
16624;SDS011;8426;48.496;9.098;2023-05-13T11:39:14;2.70;;;2.30;;
16624;SDS011;8426;48.496;9.098;2023-05-13T11:44:19;5.05;;;2.60;;
16624;SDS011;8426;48.496;9.098;2023-05-13T11:49:30;4.35;;;2.72;;
16624;SDS011;8426;48.496;9.098;2023-05-13T11:54:43;11.82;;;2.80;;
16624;SDS011;8426;48.496;9.098;2023-05-13T11:59:50;13.38;;;3.03;;
16624;SDS011;8426;48.496;9.098;2023-05-13T12:04:54;2.28;;;1.92;;
16624;SDS011;8426;48.496;9.098;2023-05-13T12:10:03;3.00;;;1.95;;
16624;SDS011;8426;48.496;9.098;2023-05-13T12:15:09;7.13;;;2.40;;
16624;SDS011;8426;48.496;9.098;2023-05-13T12:20:15;5.13;;;2.13;;
16624;SDS011;8426;48.496;9.098;2023-05-13T12:25:42;3.40;;;2.03;;
16624;SDS011;8426;48.496;9.098;2023-05-13T12:30:50;6.45;;;2.05;;
16624;SDS011;8426;48.496;9.098;2023-05-13T12:41:20;3.63;;;2.38;;
16624;SDS011;8426;48.496;9.098;2023-05-13T12:46:26;3.15;;;2.10;;
16624;SDS011;8426;48.496;9.098;2023-05-13T12:51:30;3.00;;;2.08;;
16624;SDS011;8426;48.496;9.098;2023-05-13T12:56:36;4.35;;;2.13;;
16624;SDS011;8426;48.496;9.098;2023-05-13T13:01:40;2.90;;;1.77;;
16624;SDS011;8426;48.496;9.098;2023-05-13T13:06:44;2.80;;;2.10;;
16624;SDS011;8426;48.496;9.098;2023-05-13T13:11:50;3.03;;;2.00;;
16624;SDS011;8426;48.496;9.098;2023-05-13T13:16:55;10.23;;;2.65;;
16624;SDS011;8426;48.496;9.098;2023-05-13T13:22:06;5.30;;;2.15;;
16624;SDS011;8426;48.496;9.098;2023-05-13T13:27:13;4.18;;;2.08;;
16624;SDS011;8426;48.496;9.098;2023-05-13T13:32:26;20.65;;;3.28;;
16624;SDS011;8426;48.496;9.098;2023-05-13T13:37:33;4.75;;;1.85;;
16624;SDS011;8426;48.496;9.098;2023-05-13T13:42:48;3.83;;;2.22;;
16624;SDS011;8426;48.496;9.098;2023-05-13T13:47:53;3.58;;;2.42;;
16624;SDS011;8426;48.496;9.098;2023-05-13T13:52:59;6.38;;;3.20;;
16624;SDS011;8426;48.496;9.098;2023-05-13T13:58:04;4.60;;;2.40;;
16624;SDS011;8426;48.496;9.098;2023-05-13T14:03:16;3.38;;;2.25;;
16624;SDS011;8426;48.496;9.098;2023-05-13T14:08:20;7.60;;;3.10;;
16624;SDS011;8426;48.496;9.098;2023-05-13T14:13:25;3.85;;;2.13;;
16624;SDS011;8426;48.496;9.098;2023-05-13T14:18:29;5.22;;;2.88;;
16624;SDS011;8426;48.496;9.098;2023-05-13T14:23:32;2.92;;;2.10;;
16624;SDS011;8426;48.496;9.098;2023-05-13T14:28:37;3.80;;;2.35;;
16624;SDS011;8426;48.496;9.098;2023-05-13T14:33:40;4.88;;;2.42;;
16624;SDS011;8426;48.496;9.098;2023-05-13T14:38:50;5.50;;;2.83;;
16624;SDS011;8426;48.496;9.098;2023-05-13T14:44:01;8.93;;;2.80;;
16624;SDS011;8426;48.496;9.098;2023-05-13T14:49:06;4.35;;;2.78;;
16624;SDS011;8426;48.496;9.098;2023-05-13T14:54:12;5.43;;;2.92;;
16624;SDS011;8426;48.496;9.098;2023-05-13T14:59:17;14.32;;;3.70;;
16624;SDS011;8426;48.496;9.098;2023-05-13T15:04:24;4.05;;;2.72;;
16624;SDS011;8426;48.496;9.098;2023-05-13T15:09:30;3.58;;;2.30;;
16624;SDS011;8426;48.496;9.098;2023-05-13T15:14:35;5.45;;;2.63;;
16624;SDS011;8426;48.496;9.098;2023-05-13T15:19:39;5.15;;;2.97;;
16624;SDS011;8426;48.496;9.098;2023-05-13T15:24:42;15.73;;;4.22;;
16624;SDS011;8426;48.496;9.098;2023-05-13T15:29:47;4.93;;;2.63;;
16624;SDS011;8426;48.496;9.098;2023-05-13T15:34:50;4.32;;;2.47;;
16624;SDS011;8426;48.496;9.098;2023-05-13T15:40:01;16.83;;;3.70;;
16624;SDS011;8426;48.496;9.098;2023-05-13T15:45:09;7.85;;;4.03;;
16624;SDS011;8426;48.496;9.098;2023-05-13T15:50:14;8.50;;;4.22;;
16624;SDS011;8426;48.496;9.098;2023-05-13T15:55:23;9.93;;;2.92;;
16624;SDS011;8426;48.496;9.098;2023-05-13T16:00:32;4.25;;;3.00;;
16624;SDS011;8426;48.496;9.098;2023-05-13T16:05:37;6.65;;;3.80;;
16624;SDS011;8426;48.496;9.098;2023-05-13T16:10:43;4.55;;;2.58;;
16624;SDS011;8426;48.496;9.098;2023-05-13T16:15:48;11.60;;;2.90;;
16624;SDS011;8426;48.496;9.098;2023-05-13T16:20:57;7.78;;;3.60;;
16624;SDS011;8426;48.496;9.098;2023-05-13T16:26:01;8.48;;;3.10;;
16624;SDS011;8426;48.496;9.098;2023-05-13T16:31:07;6.95;;;3.88;;
16624;SDS011;8426;48.496;9.098;2023-05-13T16:36:10;6.93;;;3.53;;
16624;SDS011;8426;48.496;9.098;2023-05-13T16:41:13;9.90;;;3.47;;
16624;SDS011;8426;48.496;9.098;2023-05-13T16:46:20;8.68;;;4.75;;
16624;SDS011;8426;48.496;9.098;2023-05-13T16:51:24;8.40;;;4.03;;
16624;SDS011;8426;48.496;9.098;2023-05-13T16:56:27;7.47;;;3.80;;
16624;SDS011;8426;48.496;9.098;2023-05-13T17:01:33;9.40;;;4.35;;
16624;SDS011;8426;48.496;9.098;2023-05-13T17:06:38;14.45;;;6.40;;
16624;SDS011;8426;48.496;9.098;2023-05-13T17:11:43;18.40;;;6.78;;
16624;SDS011;8426;48.496;9.098;2023-05-13T17:16:47;26.77;;;7.82;;
16624;SDS011;8426;48.496;9.098;2023-05-13T17:21:53;12.90;;;5.53;;
16624;SDS011;8426;48.496;9.098;2023-05-13T17:26:58;15.93;;;5.47;;
16624;SDS011;8426;48.496;9.098;2023-05-13T17:32:04;16.33;;;5.78;;
16624;SDS011;8426;48.496;9.098;2023-05-13T17:37:09;13.65;;;4.45;;
16624;SDS011;8426;48.496;9.098;2023-05-13T17:42:13;12.95;;;5.65;;
16624;SDS011;8426;48.496;9.098;2023-05-13T17:47:18;7.60;;;4.13;;
16624;SDS011;8426;48.496;9.098;2023-05-13T17:52:24;4.25;;;2.95;;
16624;SDS011;8426;48.496;9.098;2023-05-13T17:57:29;5.40;;;3.28;;
16624;SDS011;8426;48.496;9.098;2023-05-13T18:02:36;18.58;;;6.85;;
16624;SDS011;8426;48.496;9.098;2023-05-13T18:07:40;16.42;;;6.88;;
16624;SDS011;8426;48.496;9.098;2023-05-13T18:12:44;6.82;;;4.13;;
16624;SDS011;8426;48.496;9.098;2023-05-13T18:17:53;5.05;;;3.03;;
16624;SDS011;8426;48.496;9.098;2023-05-13T18:22:56;5.45;;;3.58;;
16624;SDS011;8426;48.496;9.098;2023-05-13T18:28:00;7.32;;;3.05;;
16624;SDS011;8426;48.496;9.098;2023-05-13T18:33:14;6.03;;;3.33;;
16624;SDS011;8426;48.496;9.098;2023-05-13T18:38:24;8.30;;;3.38;;
16624;SDS011;8426;48.496;9.098;2023-05-13T18:43:31;4.72;;;3.33;;
16624;SDS011;8426;48.496;9.098;2023-05-13T18:48:36;10.05;;;5.63;;
16624;SDS011;8426;48.496;9.098;2023-05-13T18:53:40;5.80;;;3.15;;
16624;SDS011;8426;48.496;9.098;2023-05-13T18:58:45;4.65;;;2.65;;
16624;SDS011;8426;48.496;9.098;2023-05-13T19:03:50;4.68;;;3.28;;
16624;SDS011;8426;48.496;9.098;2023-05-13T19:14:00;4.18;;;2.83;;
16624;SDS011;8426;48.496;9.098;2023-05-13T19:19:08;4.45;;;3.03;;
16624;SDS011;8426;48.496;9.098;2023-05-13T19:24:12;5.18;;;3.42;;
16624;SDS011;8426;48.496;9.098;2023-05-13T19:29:19;5.70;;;3.70;;
16624;SDS011;8426;48.496;9.098;2023-05-13T19:34:27;5.32;;;3.17;;
16624;SDS011;8426;48.496;9.098;2023-05-13T19:39:31;6.88;;;3.88;;
16624;SDS011;8426;48.496;9.098;2023-05-13T19:44:35;9.15;;;4.40;;
16624;SDS011;8426;48.496;9.098;2023-05-13T19:55:01;4.90;;;3.58;;
16624;SDS011;8426;48.496;9.098;2023-05-13T20:00:06;5.90;;;3.92;;
16624;SDS011;8426;48.496;9.098;2023-05-13T20:05:21;6.07;;;3.97;;
16624;SDS011;8426;48.496;9.098;2023-05-13T20:10:27;7.75;;;4.63;;
16624;SDS011;8426;48.496;9.098;2023-05-13T20:15:30;6.15;;;3.85;;
16624;SDS011;8426;48.496;9.098;2023-05-13T20:20:43;9.77;;;4.90;;
16624;SDS011;8426;48.496;9.098;2023-05-13T20:25:51;7.70;;;4.93;;
16624;SDS011;8426;48.496;9.098;2023-05-13T20:31:07;11.50;;;4.38;;
16624;SDS011;8426;48.496;9.098;2023-05-13T20:36:13;7.53;;;4.22;;
16624;SDS011;8426;48.496;9.098;2023-05-13T20:41:23;7.72;;;5.05;;
16624;SDS011;8426;48.496;9.098;2023-05-13T20:46:26;7.53;;;4.72;;
16624;SDS011;8426;48.496;9.098;2023-05-13T20:51:35;7.35;;;4.65;;
16624;SDS011;8426;48.496;9.098;2023-05-13T20:56:43;8.68;;;5.47;;
16624;SDS011;8426;48.496;9.098;2023-05-13T21:01:49;19.15;;;8.30;;
16624;SDS011;8426;48.496;9.098;2023-05-13T21:06:54;17.70;;;8.35;;
16624;SDS011;8426;48.496;9.098;2023-05-13T21:11:59;13.85;;;7.18;;
16624;SDS011;8426;48.496;9.098;2023-05-13T21:17:02;11.57;;;6.05;;
16624;SDS011;8426;48.496;9.098;2023-05-13T21:22:08;11.50;;;6.25;;
16624;SDS011;8426;48.496;9.098;2023-05-13T21:27:18;8.65;;;5.65;;
16624;SDS011;8426;48.496;9.098;2023-05-13T21:32:23;8.50;;;5.80;;
16624;SDS011;8426;48.496;9.098;2023-05-13T21:37:34;10.90;;;5.85;;
16624;SDS011;8426;48.496;9.098;2023-05-13T21:42:44;8.07;;;5.55;;
16624;SDS011;8426;48.496;9.098;2023-05-13T21:47:55;10.10;;;5.82;;
16624;SDS011;8426;48.496;9.098;2023-05-13T21:53:23;11.10;;;7.00;;
16624;SDS011;8426;48.496;9.098;2023-05-13T21:58:41;11.02;;;7.22;;
16624;SDS011;8426;48.496;9.098;2023-05-13T22:04:10;13.02;;;6.97;;
16624;SDS011;8426;48.496;9.098;2023-05-13T22:09:16;12.95;;;7.13;;
16624;SDS011;8426;48.496;9.098;2023-05-13T22:14:20;11.70;;;6.88;;
16624;SDS011;8426;48.496;9.098;2023-05-13T22:19:24;17.83;;;9.70;;
16624;SDS011;8426;48.496;9.098;2023-05-13T22:24:30;9.85;;;6.20;;
16624;SDS011;8426;48.496;9.098;2023-05-13T22:29:34;13.43;;;7.45;;
16624;SDS011;8426;48.496;9.098;2023-05-13T22:34:38;9.93;;;6.20;;
16624;SDS011;8426;48.496;9.098;2023-05-13T22:39:44;16.20;;;7.50;;
16624;SDS011;8426;48.496;9.098;2023-05-13T22:44:55;10.63;;;6.90;;
16624;SDS011;8426;48.496;9.098;2023-05-13T22:49:59;12.32;;;7.18;;
16624;SDS011;8426;48.496;9.098;2023-05-13T22:55:04;8.00;;;5.53;;
16624;SDS011;8426;48.496;9.098;2023-05-13T23:00:09;10.13;;;6.63;;
16624;SDS011;8426;48.496;9.098;2023-05-13T23:05:21;14.10;;;7.82;;
16624;SDS011;8426;48.496;9.098;2023-05-13T23:10:34;8.80;;;5.72;;
16624;SDS011;8426;48.496;9.098;2023-05-13T23:15:38;9.23;;;6.20;;
16624;SDS011;8426;48.496;9.098;2023-05-13T23:20:41;9.93;;;6.53;;
16624;SDS011;8426;48.496;9.098;2023-05-13T23:31:06;10.15;;;6.80;;
16624;SDS011;8426;48.496;9.098;2023-05-13T23:36:10;11.98;;;6.82;;
16624;SDS011;8426;48.496;9.098;2023-05-13T23:41:17;13.02;;;7.88;;
16624;SDS011;8426;48.496;9.098;2023-05-13T23:46:27;10.65;;;7.15;;
16624;SDS011;8426;48.496;9.098;2023-05-13T23:51:34;10.70;;;7.30;;
16624;SDS011;8426;48.496;9.098;2023-05-13T23:56:43;10.25;;;6.43;;
